sensor_id;sensor_type;location;lat;lon;timestamp;temperature;humidity
53695;DHT22;39588;51.124;7.190;2023-07-31T00:14:17;16.10;99.90
53695;DHT22;39588;51.124;7.190;2023-07-31T00:16:43;16.00;99.90
53695;DHT22;39588;51.124;7.190;2023-07-31T00:21:34;16.10;99.90
53695;DHT22;39588;51.124;7.190;2023-07-31T00:24:00;16.10;99.90
53695;DHT22;39588;51.124;7.190;2023-07-31T00:26:26;16.10;99.90
53695;DHT22;39588;51.124;7.190;2023-07-31T00:28:51;16.00;99.90
53695;DHT22;39588;51.124;7.190;2023-07-31T00:31:17;16.00;99.90
53695;DHT22;39588;51.124;7.190;2023-07-31T00:33:42;16.10;99.90
53695;DHT22;39588;51.124;7.190;2023-07-31T00:41:00;16.00;99.90
53695;DHT22;39588;51.124;7.190;2023-07-31T00:45:52;16.00;99.90
53695;DHT22;39588;51.124;7.190;2023-07-31T00:48:17;16.00;99.90
53695;DHT22;39588;51.124;7.190;2023-07-31T00:50:43;16.00;99.90
53695;DHT22;39588;51.124;7.190;2023-07-31T01:05:43;16.00;99.90
53695;DHT22;39588;51.124;7.190;2023-07-31T01:11:25;16.00;99.90
53695;DHT22;39588;51.124;7.190;2023-07-31T01:13:51;15.90;99.90
53695;DHT22;39588;51.124;7.190;2023-07-31T01:16:18;16.00;99.90
53695;DHT22;39588;51.124;7.190;2023-07-31T01:18:44;16.00;99.90
53695;DHT22;39588;51.124;7.190;2023-07-31T01:21:41;16.00;99.90
53695;DHT22;39588;51.124;7.190;2023-07-31T01:24:23;16.00;99.90
53695;DHT22;39588;51.124;7.190;2023-07-31T01:26:57;15.90;99.90
53695;DHT22;39588;51.124;7.190;2023-07-31T01:29:32;16.00;99.90
53695;DHT22;39588;51.124;7.190;2023-07-31T01:32:01;16.00;99.90
53695;DHT22;39588;51.124;7.190;2023-07-31T01:34:28;16.00;99.90
53695;DHT22;39588;51.124;7.190;2023-07-31T01:36:56;16.00;99.90
53695;DHT22;39588;51.124;7.190;2023-07-31T01:39:21;15.90;99.90
53695;DHT22;39588;51.124;7.190;2023-07-31T01:41:47;15.90;99.90
53695;DHT22;39588;51.124;7.190;2023-07-31T01:44:12;15.80;99.90
53695;DHT22;39588;51.124;7.190;2023-07-31T01:49:05;15.80;99.90
53695;DHT22;39588;51.124;7.190;2023-07-31T01:51:31;15.80;99.90
53695;DHT22;39588;51.124;7.190;2023-07-31T01:54:01;15.80;99.90
53695;DHT22;39588;51.124;7.190;2023-07-31T01:58:52;15.80;99.90
53695;DHT22;39588;51.124;7.190;2023-07-31T02:01:18;15.90;99.90
53695;DHT22;39588;51.124;7.190;2023-07-31T02:03:44;15.90;99.90
53695;DHT22;39588;51.124;7.190;2023-07-31T02:06:09;15.90;99.90
53695;DHT22;39588;51.124;7.190;2023-07-31T02:20:52;15.90;99.90
53695;DHT22;39588;51.124;7.190;2023-07-31T02:23:18;15.90;99.90
53695;DHT22;39588;51.124;7.190;2023-07-31T02:25:44;15.90;99.90
53695;DHT22;39588;51.124;7.190;2023-07-31T02:28:10;15.80;99.90
53695;DHT22;39588;51.124;7.190;2023-07-31T02:40:19;15.90;99.90
53695;DHT22;39588;51.124;7.190;2023-07-31T02:42:45;15.90;99.90
53695;DHT22;39588;51.124;7.190;2023-07-31T02:45:11;16.00;99.90
53695;DHT22;39588;51.124;7.190;2023-07-31T02:50:04;16.00;99.90
53695;DHT22;39588;51.124;7.190;2023-07-31T02:52:30;16.00;99.90
53695;DHT22;39588;51.124;7.190;2023-07-31T02:54:56;16.00;99.90
53695;DHT22;39588;51.124;7.190;2023-07-31T02:57:21;16.00;99.90
53695;DHT22;39588;51.124;7.190;2023-07-31T02:59:47;16.00;99.90
53695;DHT22;39588;51.124;7.190;2023-07-31T03:02:13;16.00;99.90
53695;DHT22;39588;51.124;7.190;2023-07-31T03:04:39;16.00;99.90
53695;DHT22;39588;51.124;7.190;2023-07-31T03:07:05;16.00;99.90
53695;DHT22;39588;51.124;7.190;2023-07-31T03:09:31;16.00;99.90
53695;DHT22;39588;51.124;7.190;2023-07-31T03:11:56;16.00;99.90
53695;DHT22;39588;51.124;7.190;2023-07-31T03:14:22;16.00;99.90
53695;DHT22;39588;51.124;7.190;2023-07-31T03:16:48;16.00;99.90
53695;DHT22;39588;51.124;7.190;2023-07-31T03:19:14;16.00;99.90
53695;DHT22;39588;51.124;7.190;2023-07-31T03:21:39;16.00;99.90
53695;DHT22;39588;51.124;7.190;2023-07-31T03:26:32;16.00;99.90
53695;DHT22;39588;51.124;7.190;2023-07-31T03:28:58;16.00;99.90
53695;DHT22;39588;51.124;7.190;2023-07-31T03:36:15;16.00;99.90
53695;DHT22;39588;51.124;7.190;2023-07-31T03:38:41;16.00;99.90
53695;DHT22;39588;51.124;7.190;2023-07-31T03:41:06;16.10;99.90
53695;DHT22;39588;51.124;7.190;2023-07-31T03:43:32;16.00;99.90
53695;DHT22;39588;51.124;7.190;2023-07-31T03:46:00;16.10;99.90
53695;DHT22;39588;51.124;7.190;2023-07-31T03:48:25;16.10;99.90
53695;DHT22;39588;51.124;7.190;2023-07-31T03:50:51;16.10;99.90
53695;DHT22;39588;51.124;7.190;2023-07-31T03:53:17;16.10;99.90
53695;DHT22;39588;51.124;7.190;2023-07-31T03:55:42;16.10;99.90
53695;DHT22;39588;51.124;7.190;2023-07-31T04:07:52;16.10;99.90
53695;DHT22;39588;51.124;7.190;2023-07-31T04:10:17;16.10;99.90
53695;DHT22;39588;51.124;7.190;2023-07-31T04:12:43;16.10;99.90
53695;DHT22;39588;51.124;7.190;2023-07-31T04:15:09;16.10;99.90
53695;DHT22;39588;51.124;7.190;2023-07-31T04:22:27;16.10;99.90
53695;DHT22;39588;51.124;7.190;2023-07-31T04:32:13;16.20;99.90
53695;DHT22;39588;51.124;7.190;2023-07-31T04:34:41;16.20;99.90
53695;DHT22;39588;51.124;7.190;2023-07-31T04:37:06;16.20;99.90
53695;DHT22;39588;51.124;7.190;2023-07-31T04:39:32;16.20;99.90
53695;DHT22;39588;51.124;7.190;2023-07-31T04:46:49;16.20;99.90
53695;DHT22;39588;51.124;7.190;2023-07-31T04:49:15;16.20;99.90
53695;DHT22;39588;51.124;7.190;2023-07-31T04:51:40;16.20;99.90
53695;DHT22;39588;51.124;7.190;2023-07-31T04:54:06;16.30;99.90
53695;DHT22;39588;51.124;7.190;2023-07-31T04:56:32;16.30;99.90
53695;DHT22;39588;51.124;7.190;2023-07-31T04:58:57;16.30;99.90
53695;DHT22;39588;51.124;7.190;2023-07-31T05:01:23;16.30;99.90
53695;DHT22;39588;51.124;7.190;2023-07-31T05:03:48;16.30;99.90
53695;DHT22;39588;51.124;7.190;2023-07-31T05:08:40;16.30;99.90
53695;DHT22;39588;51.124;7.190;2023-07-31T05:13:32;16.30;99.90
53695;DHT22;39588;51.124;7.190;2023-07-31T05:15:57;16.40;99.90
53695;DHT22;39588;51.124;7.190;2023-07-31T05:18:23;16.40;99.90
53695;DHT22;39588;51.124;7.190;2023-07-31T05:20:49;16.40;99.90
53695;DHT22;39588;51.124;7.190;2023-07-31T05:28:06;16.60;99.90
53695;DHT22;39588;51.124;7.190;2023-07-31T05:30:32;16.60;99.90
53695;DHT22;39588;51.124;7.190;2023-07-31T05:32:58;16.60;99.90
53695;DHT22;39588;51.124;7.190;2023-07-31T05:35:23;16.60;99.90
53695;DHT22;39588;51.124;7.190;2023-07-31T05:45:07;16.80;99.90
53695;DHT22;39588;51.124;7.190;2023-07-31T05:49:59;16.90;99.90
53695;DHT22;39588;51.124;7.190;2023-07-31T05:52:25;16.90;99.90
53695;DHT22;39588;51.124;7.190;2023-07-31T05:54:51;16.80;99.90
53695;DHT22;39588;51.124;7.190;2023-07-31T05:57:17;16.80;99.90
53695;DHT22;39588;51.124;7.190;2023-07-31T05:59:42;16.80;99.90
53695;DHT22;39588;51.124;7.190;2023-07-31T06:02:08;16.90;99.90
53695;DHT22;39588;51.124;7.190;2023-07-31T06:04:33;16.90;99.90
53695;DHT22;39588;51.124;7.190;2023-07-31T06:07:00;16.90;99.90
53695;DHT22;39588;51.124;7.190;2023-07-31T06:09:25;16.90;99.90
53695;DHT22;39588;51.124;7.190;2023-07-31T06:11:51;16.80;99.90
53695;DHT22;39588;51.124;7.190;2023-07-31T06:14:17;16.80;99.90
53695;DHT22;39588;51.124;7.190;2023-07-31T06:16:43;16.80;99.90
53695;DHT22;39588;51.124;7.190;2023-07-31T06:19:09;16.70;99.90
53695;DHT22;39588;51.124;7.190;2023-07-31T06:21:35;16.70;99.90
53695;DHT22;39588;51.124;7.190;2023-07-31T06:24:03;16.70;99.90
53695;DHT22;39588;51.124;7.190;2023-07-31T06:26:29;16.60;99.90
53695;DHT22;39588;51.124;7.190;2023-07-31T06:33:49;16.50;99.90
53695;DHT22;39588;51.124;7.190;2023-07-31T06:46:06;16.50;99.90
53695;DHT22;39588;51.124;7.190;2023-07-31T06:48:33;16.50;99.90
53695;DHT22;39588;51.124;7.190;2023-07-31T06:53:25;16.70;99.90
53695;DHT22;39588;51.124;7.190;2023-07-31T06:55:51;16.80;99.90
53695;DHT22;39588;51.124;7.190;2023-07-31T06:58:17;16.90;99.90
53695;DHT22;39588;51.124;7.190;2023-07-31T07:00:43;17.00;99.90
53695;DHT22;39588;51.124;7.190;2023-07-31T07:03:08;17.00;99.90
53695;DHT22;39588;51.124;7.190;2023-07-31T07:05:34;17.00;99.90
53695;DHT22;39588;51.124;7.190;2023-07-31T07:10:26;17.00;99.90
53695;DHT22;39588;51.124;7.190;2023-07-31T07:12:51;17.00;99.90
53695;DHT22;39588;51.124;7.190;2023-07-31T07:15:17;17.10;99.90
53695;DHT22;39588;51.124;7.190;2023-07-31T07:17:43;17.10;99.90
53695;DHT22;39588;51.124;7.190;2023-07-31T07:20:08;17.20;99.90
53695;DHT22;39588;51.124;7.190;2023-07-31T07:22:34;17.30;99.90
53695;DHT22;39588;51.124;7.190;2023-07-31T07:25:00;17.30;99.90
53695;DHT22;39588;51.124;7.190;2023-07-31T07:27:25;17.30;99.90
53695;DHT22;39588;51.124;7.190;2023-07-31T07:29:51;17.20;99.90
53695;DHT22;39588;51.124;7.190;2023-07-31T07:32:20;17.20;99.90
53695;DHT22;39588;51.124;7.190;2023-07-31T07:34:47;17.20;99.90
53695;DHT22;39588;51.124;7.190;2023-07-31T07:37:19;17.10;99.90
53695;DHT22;39588;51.124;7.190;2023-07-31T07:39:45;17.10;99.90
53695;DHT22;39588;51.124;7.190;2023-07-31T07:44:37;16.90;99.90
53695;DHT22;39588;51.124;7.190;2023-07-31T07:51:54;16.90;99.90
53695;DHT22;39588;51.124;7.190;2023-07-31T07:54:20;16.80;99.90
53695;DHT22;39588;51.124;7.190;2023-07-31T07:56:46;16.80;99.90
53695;DHT22;39588;51.124;7.190;2023-07-31T07:59:12;16.70;99.90
53695;DHT22;39588;51.124;7.190;2023-07-31T08:01:37;16.70;99.90
53695;DHT22;39588;51.124;7.190;2023-07-31T08:11:21;16.70;99.90
53695;DHT22;39588;51.124;7.190;2023-07-31T08:13:49;16.70;99.90
53695;DHT22;39588;51.124;7.190;2023-07-31T08:16:14;16.70;99.90
53695;DHT22;39588;51.124;7.190;2023-07-31T08:40:36;16.60;99.90
53695;DHT22;39588;51.124;7.190;2023-07-31T08:43:03;16.60;99.90
53695;DHT22;39588;51.124;7.190;2023-07-31T08:45:30;16.60;99.90
53695;DHT22;39588;51.124;7.190;2023-07-31T08:47:56;16.60;99.90
53695;DHT22;39588;51.124;7.190;2023-07-31T08:50:25;16.70;99.90
53695;DHT22;39588;51.124;7.190;2023-07-31T08:52:51;16.90;99.90
53695;DHT22;39588;51.124;7.190;2023-07-31T08:55:17;17.00;99.90
53695;DHT22;39588;51.124;7.190;2023-07-31T08:57:49;17.10;99.90
53695;DHT22;39588;51.124;7.190;2023-07-31T09:00:16;17.30;99.90
53695;DHT22;39588;51.124;7.190;2023-07-31T09:02:56;17.30;99.90
53695;DHT22;39588;51.124;7.190;2023-07-31T09:05:23;17.40;99.90
53695;DHT22;39588;51.124;7.190;2023-07-31T09:10:17;17.60;99.90
53695;DHT22;39588;51.124;7.190;2023-07-31T09:12:43;17.60;99.90
53695;DHT22;39588;51.124;7.190;2023-07-31T09:15:11;17.70;99.90
53695;DHT22;39588;51.124;7.190;2023-07-31T09:17:36;17.70;99.90
53695;DHT22;39588;51.124;7.190;2023-07-31T09:20:21;17.60;99.90
53695;DHT22;39588;51.124;7.190;2023-07-31T09:22:48;17.50;99.90
53695;DHT22;39588;51.124;7.190;2023-07-31T09:25:18;17.40;99.90
53695;DHT22;39588;51.124;7.190;2023-07-31T09:27:53;17.40;99.90
53695;DHT22;39588;51.124;7.190;2023-07-31T09:32:45;17.40;99.90
53695;DHT22;39588;51.124;7.190;2023-07-31T09:35:39;17.40;99.90
53695;DHT22;39588;51.124;7.190;2023-07-31T09:38:30;17.30;99.90
53695;DHT22;39588;51.124;7.190;2023-07-31T09:40:58;17.20;99.90
53695;DHT22;39588;51.124;7.190;2023-07-31T09:43:24;17.10;99.90
53695;DHT22;39588;51.124;7.190;2023-07-31T09:45:55;17.10;99.90
53695;DHT22;39588;51.124;7.190;2023-07-31T09:48:23;17.00;99.90
53695;DHT22;39588;51.124;7.190;2023-07-31T09:50:52;17.00;99.90
53695;DHT22;39588;51.124;7.190;2023-07-31T09:53:17;17.00;99.90
53695;DHT22;39588;51.124;7.190;2023-07-31T09:55:43;16.90;99.90
53695;DHT22;39588;51.124;7.190;2023-07-31T09:58:11;17.00;99.90
53695;DHT22;39588;51.124;7.190;2023-07-31T10:03:10;17.10;99.90
53695;DHT22;39588;51.124;7.190;2023-07-31T10:05:39;17.20;99.90
53695;DHT22;39588;51.124;7.190;2023-07-31T10:08:07;17.40;99.90
53695;DHT22;39588;51.124;7.190;2023-07-31T10:10:36;17.60;99.90
53695;DHT22;39588;51.124;7.190;2023-07-31T10:13:01;17.60;99.90
53695;DHT22;39588;51.124;7.190;2023-07-31T10:15:28;17.60;99.90
53695;DHT22;39588;51.124;7.190;2023-07-31T10:22:48;18.00;99.90
53695;DHT22;39588;51.124;7.190;2023-07-31T10:25:15;18.10;99.90
53695;DHT22;39588;51.124;7.190;2023-07-31T10:27:42;18.20;99.90
53695;DHT22;39588;51.124;7.190;2023-07-31T10:30:14;18.20;99.90
53695;DHT22;39588;51.124;7.190;2023-07-31T10:32:41;18.20;99.90
53695;DHT22;39588;51.124;7.190;2023-07-31T10:35:09;18.20;99.90
53695;DHT22;39588;51.124;7.190;2023-07-31T10:37:42;18.20;99.90
53695;DHT22;39588;51.124;7.190;2023-07-31T10:40:13;18.10;99.90
53695;DHT22;39588;51.124;7.190;2023-07-31T10:42:53;18.00;99.90
53695;DHT22;39588;51.124;7.190;2023-07-31T10:45:32;17.90;99.90
53695;DHT22;39588;51.124;7.190;2023-07-31T10:50:26;17.80;99.90
53695;DHT22;39588;51.124;7.190;2023-07-31T10:52:54;17.80;99.90
53695;DHT22;39588;51.124;7.190;2023-07-31T10:58:10;17.60;99.90
53695;DHT22;39588;51.124;7.190;2023-07-31T11:00:45;17.40;99.90
53695;DHT22;39588;51.124;7.190;2023-07-31T11:03:16;17.40;99.90
53695;DHT22;39588;51.124;7.190;2023-07-31T11:05:49;17.50;99.90
53695;DHT22;39588;51.124;7.190;2023-07-31T11:08:20;17.50;99.90
53695;DHT22;39588;51.124;7.190;2023-07-31T11:10:48;17.70;99.90
53695;DHT22;39588;51.124;7.190;2023-07-31T11:13:14;17.60;99.90
53695;DHT22;39588;51.124;7.190;2023-07-31T11:15:40;17.60;99.90
53695;DHT22;39588;51.124;7.190;2023-07-31T11:18:05;17.70;99.90
53695;DHT22;39588;51.124;7.190;2023-07-31T11:20:34;17.70;99.90
53695;DHT22;39588;51.124;7.190;2023-07-31T11:23:06;17.70;99.90
53695;DHT22;39588;51.124;7.190;2023-07-31T11:25:33;17.60;99.90
53695;DHT22;39588;51.124;7.190;2023-07-31T11:28:05;17.60;99.90
53695;DHT22;39588;51.124;7.190;2023-07-31T11:40:16;18.10;99.90
53695;DHT22;39588;51.124;7.190;2023-07-31T11:42:41;18.10;99.90
53695;DHT22;39588;51.124;7.190;2023-07-31T11:45:08;18.20;99.90
53695;DHT22;39588;51.124;7.190;2023-07-31T11:47:36;18.20;99.90
53695;DHT22;39588;51.124;7.190;2023-07-31T11:50:06;18.20;99.90
53695;DHT22;39588;51.124;7.190;2023-07-31T11:52:36;18.20;99.90
53695;DHT22;39588;51.124;7.190;2023-07-31T11:55:03;18.10;99.90
53695;DHT22;39588;51.124;7.190;2023-07-31T11:57:29;18.00;99.90
53695;DHT22;39588;51.124;7.190;2023-07-31T11:59:57;18.00;99.90
53695;DHT22;39588;51.124;7.190;2023-07-31T12:02:23;17.90;99.90
53695;DHT22;39588;51.124;7.190;2023-07-31T12:04:49;17.90;99.90
53695;DHT22;39588;51.124;7.190;2023-07-31T12:07:15;17.90;99.90
53695;DHT22;39588;51.124;7.190;2023-07-31T12:09:53;17.90;99.90
53695;DHT22;39588;51.124;7.190;2023-07-31T12:12:20;17.90;99.90
53695;DHT22;39588;51.124;7.190;2023-07-31T12:14:46;17.90;99.90
53695;DHT22;39588;51.124;7.190;2023-07-31T12:17:11;17.90;99.90
53695;DHT22;39588;51.124;7.190;2023-07-31T12:19:37;17.90;99.90
53695;DHT22;39588;51.124;7.190;2023-07-31T12:22:11;17.90;99.90
53695;DHT22;39588;51.124;7.190;2023-07-31T12:24:39;17.90;99.90
53695;DHT22;39588;51.124;7.190;2023-07-31T12:27:23;17.90;99.90
53695;DHT22;39588;51.124;7.190;2023-07-31T12:29:50;18.00;99.90
53695;DHT22;39588;51.124;7.190;2023-07-31T12:32:23;18.00;99.90
53695;DHT22;39588;51.124;7.190;2023-07-31T12:34:54;18.00;99.90
53695;DHT22;39588;51.124;7.190;2023-07-31T12:37:21;18.00;99.90
53695;DHT22;39588;51.124;7.190;2023-07-31T12:42:13;18.20;99.90
53695;DHT22;39588;51.124;7.190;2023-07-31T12:44:38;18.20;99.90
53695;DHT22;39588;51.124;7.190;2023-07-31T12:47:12;18.40;99.90
53695;DHT22;39588;51.124;7.190;2023-07-31T12:49:40;18.40;99.90
53695;DHT22;39588;51.124;7.190;2023-07-31T12:52:06;18.50;99.90
53695;DHT22;39588;51.124;7.190;2023-07-31T12:54:31;18.60;99.90
53695;DHT22;39588;51.124;7.190;2023-07-31T12:56:57;18.50;99.90
53695;DHT22;39588;51.124;7.190;2023-07-31T12:59:23;18.50;99.90
53695;DHT22;39588;51.124;7.190;2023-07-31T13:01:48;18.50;99.90
53695;DHT22;39588;51.124;7.190;2023-07-31T13:06:40;18.60;99.90
53695;DHT22;39588;51.124;7.190;2023-07-31T13:09:05;18.80;99.90
53695;DHT22;39588;51.124;7.190;2023-07-31T13:11:32;19.00;99.90
53695;DHT22;39588;51.124;7.190;2023-07-31T13:13:57;19.20;99.90
53695;DHT22;39588;51.124;7.190;2023-07-31T13:16:23;19.30;99.90
53695;DHT22;39588;51.124;7.190;2023-07-31T13:18:49;19.20;99.90
53695;DHT22;39588;51.124;7.190;2023-07-31T13:21:14;19.10;99.90
53695;DHT22;39588;51.124;7.190;2023-07-31T13:23:40;19.20;99.90
53695;DHT22;39588;51.124;7.190;2023-07-31T13:26:05;19.20;99.90
53695;DHT22;39588;51.124;7.190;2023-07-31T13:28:31;19.10;99.90
53695;DHT22;39588;51.124;7.190;2023-07-31T13:38:15;18.90;99.90
53695;DHT22;39588;51.124;7.190;2023-07-31T13:40:48;18.90;99.90
53695;DHT22;39588;51.124;7.190;2023-07-31T13:43:13;19.00;99.90
53695;DHT22;39588;51.124;7.190;2023-07-31T13:45:39;19.20;99.90
53695;DHT22;39588;51.124;7.190;2023-07-31T13:48:04;19.40;99.90
53695;DHT22;39588;51.124;7.190;2023-07-31T13:50:33;19.50;99.90
53695;DHT22;39588;51.124;7.190;2023-07-31T13:52:59;19.80;99.90
53695;DHT22;39588;51.124;7.190;2023-07-31T13:55:24;20.10;99.90
53695;DHT22;39588;51.124;7.190;2023-07-31T13:57:50;20.30;99.90
53695;DHT22;39588;51.124;7.190;2023-07-31T14:00:16;20.70;99.90
53695;DHT22;39588;51.124;7.190;2023-07-31T14:02:41;21.00;99.90
53695;DHT22;39588;51.124;7.190;2023-07-31T14:05:07;21.30;99.90
53695;DHT22;39588;51.124;7.190;2023-07-31T14:07:34;21.40;99.90
53695;DHT22;39588;51.124;7.190;2023-07-31T14:10:00;21.10;99.90
53695;DHT22;39588;51.124;7.190;2023-07-31T14:17:18;20.30;99.90
53695;DHT22;39588;51.124;7.190;2023-07-31T14:19:43;20.10;99.90
53695;DHT22;39588;51.124;7.190;2023-07-31T14:22:28;19.90;99.90
53695;DHT22;39588;51.124;7.190;2023-07-31T14:24:54;19.70;99.90
53695;DHT22;39588;51.124;7.190;2023-07-31T14:27:20;19.60;99.90
53695;DHT22;39588;51.124;7.190;2023-07-31T14:29:46;19.60;99.90
53695;DHT22;39588;51.124;7.190;2023-07-31T14:32:11;19.50;99.90
53695;DHT22;39588;51.124;7.190;2023-07-31T14:34:37;19.30;99.90
53695;DHT22;39588;51.124;7.190;2023-07-31T14:37:12;19.20;99.90
53695;DHT22;39588;51.124;7.190;2023-07-31T14:39:37;19.10;99.90
53695;DHT22;39588;51.124;7.190;2023-07-31T14:42:03;19.10;99.90
53695;DHT22;39588;51.124;7.190;2023-07-31T14:44:29;19.00;99.90
53695;DHT22;39588;51.124;7.190;2023-07-31T14:46:54;18.90;99.90
53695;DHT22;39588;51.124;7.190;2023-07-31T14:52:14;18.70;99.90
53695;DHT22;39588;51.124;7.190;2023-07-31T14:54:40;18.70;99.90
53695;DHT22;39588;51.124;7.190;2023-07-31T14:57:10;18.50;99.90
53695;DHT22;39588;51.124;7.190;2023-07-31T15:04:29;18.50;99.90
53695;DHT22;39588;51.124;7.190;2023-07-31T15:06:55;18.50;99.90
53695;DHT22;39588;51.124;7.190;2023-07-31T15:09:20;18.50;99.90
53695;DHT22;39588;51.124;7.190;2023-07-31T15:11:46;18.50;99.90
53695;DHT22;39588;51.124;7.190;2023-07-31T15:14:12;18.40;99.90
53695;DHT22;39588;51.124;7.190;2023-07-31T15:23:57;18.50;99.90
53695;DHT22;39588;51.124;7.190;2023-07-31T15:26:22;18.50;99.90
53695;DHT22;39588;51.124;7.190;2023-07-31T15:29:05;18.50;99.90
53695;DHT22;39588;51.124;7.190;2023-07-31T15:31:38;18.50;99.90
53695;DHT22;39588;51.124;7.190;2023-07-31T15:34:04;18.40;99.90
53695;DHT22;39588;51.124;7.190;2023-07-31T15:36:29;18.40;99.90
53695;DHT22;39588;51.124;7.190;2023-07-31T15:38:55;18.30;99.90
53695;DHT22;39588;51.124;7.190;2023-07-31T15:46:13;18.30;99.90
53695;DHT22;39588;51.124;7.190;2023-07-31T15:48:39;18.30;99.90
53695;DHT22;39588;51.124;7.190;2023-07-31T15:51:04;18.30;99.90
53695;DHT22;39588;51.124;7.190;2023-07-31T15:53:30;18.20;99.90
53695;DHT22;39588;51.124;7.190;2023-07-31T15:55:56;18.30;99.90
53695;DHT22;39588;51.124;7.190;2023-07-31T15:58:22;18.30;99.90
53695;DHT22;39588;51.124;7.190;2023-07-31T16:00:48;18.30;99.90
53695;DHT22;39588;51.124;7.190;2023-07-31T16:03:14;18.30;99.90
53695;DHT22;39588;51.124;7.190;2023-07-31T16:08:07;18.30;99.90
53695;DHT22;39588;51.124;7.190;2023-07-31T16:10:32;18.30;99.90
53695;DHT22;39588;51.124;7.190;2023-07-31T16:12:58;18.30;99.90
53695;DHT22;39588;51.124;7.190;2023-07-31T16:25:09;18.10;99.90
53695;DHT22;39588;51.124;7.190;2023-07-31T16:27:35;18.10;99.90
53695;DHT22;39588;51.124;7.190;2023-07-31T16:30:01;17.90;99.90
53695;DHT22;39588;51.124;7.190;2023-07-31T16:32:27;17.90;99.90
53695;DHT22;39588;51.124;7.190;2023-07-31T16:34:53;17.80;99.90
53695;DHT22;39588;51.124;7.190;2023-07-31T16:37:18;17.90;99.90
53695;DHT22;39588;51.124;7.190;2023-07-31T16:39:45;17.80;99.90
53695;DHT22;39588;51.124;7.190;2023-07-31T16:42:14;17.80;99.90
53695;DHT22;39588;51.124;7.190;2023-07-31T16:44:41;17.80;99.90
53695;DHT22;39588;51.124;7.190;2023-07-31T16:47:07;17.80;99.90
53695;DHT22;39588;51.124;7.190;2023-07-31T16:49:33;17.80;99.90
53695;DHT22;39588;51.124;7.190;2023-07-31T16:54:24;17.80;99.90
53695;DHT22;39588;51.124;7.190;2023-07-31T16:56:50;17.80;99.90
53695;DHT22;39588;51.124;7.190;2023-07-31T16:59:17;17.70;99.90
53695;DHT22;39588;51.124;7.190;2023-07-31T17:01:43;17.70;99.90
53695;DHT22;39588;51.124;7.190;2023-07-31T17:04:09;17.60;99.90
53695;DHT22;39588;51.124;7.190;2023-07-31T17:06:35;17.60;99.90
53695;DHT22;39588;51.124;7.190;2023-07-31T17:09:03;17.60;99.90
53695;DHT22;39588;51.124;7.190;2023-07-31T17:11:29;17.60;99.90
53695;DHT22;39588;51.124;7.190;2023-07-31T17:13:54;17.60;99.90
53695;DHT22;39588;51.124;7.190;2023-07-31T17:16:20;17.60;99.90
53695;DHT22;39588;51.124;7.190;2023-07-31T17:18:46;17.50;99.90
53695;DHT22;39588;51.124;7.190;2023-07-31T17:21:12;17.50;99.90
53695;DHT22;39588;51.124;7.190;2023-07-31T17:23:38;17.50;99.90
53695;DHT22;39588;51.124;7.190;2023-07-31T17:26:04;17.40;99.90
53695;DHT22;39588;51.124;7.190;2023-07-31T17:28:37;17.40;99.90
53695;DHT22;39588;51.124;7.190;2023-07-31T17:31:10;17.40;99.90
53695;DHT22;39588;51.124;7.190;2023-07-31T17:33:38;17.30;99.90
53695;DHT22;39588;51.124;7.190;2023-07-31T17:36:04;17.20;99.90
53695;DHT22;39588;51.124;7.190;2023-07-31T17:38:33;17.10;99.90
53695;DHT22;39588;51.124;7.190;2023-07-31T17:40:59;17.00;99.90
53695;DHT22;39588;51.124;7.190;2023-07-31T17:43:25;16.90;99.90
53695;DHT22;39588;51.124;7.190;2023-07-31T17:45:51;17.00;99.90
53695;DHT22;39588;51.124;7.190;2023-07-31T17:48:17;16.90;99.90
53695;DHT22;39588;51.124;7.190;2023-07-31T17:50:47;16.90;99.90
53695;DHT22;39588;51.124;7.190;2023-07-31T17:53:16;16.90;99.90
53695;DHT22;39588;51.124;7.190;2023-07-31T17:55:46;16.90;99.90
53695;DHT22;39588;51.124;7.190;2023-07-31T17:58:12;16.90;99.90
53695;DHT22;39588;51.124;7.190;2023-07-31T18:03:04;16.70;99.90
53695;DHT22;39588;51.124;7.190;2023-07-31T18:05:31;16.70;99.90
53695;DHT22;39588;51.124;7.190;2023-07-31T18:07:58;16.80;99.90
53695;DHT22;39588;51.124;7.190;2023-07-31T18:10:24;16.70;99.90
53695;DHT22;39588;51.124;7.190;2023-07-31T18:12:52;16.70;99.90
53695;DHT22;39588;51.124;7.190;2023-07-31T18:15:17;16.70;99.90
53695;DHT22;39588;51.124;7.190;2023-07-31T18:20:09;16.60;99.90
53695;DHT22;39588;51.124;7.190;2023-07-31T18:22:37;16.60;99.90
53695;DHT22;39588;51.124;7.190;2023-07-31T18:25:10;16.60;99.90
53695;DHT22;39588;51.124;7.190;2023-07-31T18:39:51;16.70;99.90
53695;DHT22;39588;51.124;7.190;2023-07-31T18:42:16;16.70;99.90
53695;DHT22;39588;51.124;7.190;2023-07-31T18:49:34;16.60;99.90
53695;DHT22;39588;51.124;7.190;2023-07-31T18:51:59;16.60;99.90
53695;DHT22;39588;51.124;7.190;2023-07-31T18:54:25;16.60;99.90
53695;DHT22;39588;51.124;7.190;2023-07-31T18:56:51;16.60;99.90
53695;DHT22;39588;51.124;7.190;2023-07-31T18:59:17;16.60;99.90
53695;DHT22;39588;51.124;7.190;2023-07-31T19:04:10;16.60;99.90
53695;DHT22;39588;51.124;7.190;2023-07-31T19:09:05;16.60;99.90
53695;DHT22;39588;51.124;7.190;2023-07-31T19:11:30;16.60;99.90
53695;DHT22;39588;51.124;7.190;2023-07-31T19:13:56;16.50;99.90
53695;DHT22;39588;51.124;7.190;2023-07-31T19:16:22;16.60;99.90
53695;DHT22;39588;51.124;7.190;2023-07-31T19:21:14;16.50;99.90
53695;DHT22;39588;51.124;7.190;2023-07-31T19:23:39;16.50;99.90
53695;DHT22;39588;51.124;7.190;2023-07-31T19:26:05;16.40;99.90
53695;DHT22;39588;51.124;7.190;2023-07-31T19:28:31;16.40;99.90
53695;DHT22;39588;51.124;7.190;2023-07-31T19:30:57;16.40;99.90
53695;DHT22;39588;51.124;7.190;2023-07-31T19:33:23;16.40;99.90
53695;DHT22;39588;51.124;7.190;2023-07-31T19:35:59;16.40;99.90
53695;DHT22;39588;51.124;7.190;2023-07-31T19:38:25;16.40;99.90
53695;DHT22;39588;51.124;7.190;2023-07-31T19:40:51;16.40;99.90
53695;DHT22;39588;51.124;7.190;2023-07-31T19:43:17;16.50;99.90
53695;DHT22;39588;51.124;7.190;2023-07-31T19:45:43;16.40;99.90
53695;DHT22;39588;51.124;7.190;2023-07-31T19:48:09;16.40;99.90
53695;DHT22;39588;51.124;7.190;2023-07-31T19:50:35;16.40;99.90
53695;DHT22;39588;51.124;7.190;2023-07-31T19:53:01;16.40;99.90
53695;DHT22;39588;51.124;7.190;2023-07-31T19:55:27;16.40;99.90
53695;DHT22;39588;51.124;7.190;2023-07-31T19:57:55;16.40;99.90
53695;DHT22;39588;51.124;7.190;2023-07-31T20:02:46;16.40;99.90
53695;DHT22;39588;51.124;7.190;2023-07-31T20:05:12;16.40;99.90
53695;DHT22;39588;51.124;7.190;2023-07-31T20:07:38;16.50;99.90
53695;DHT22;39588;51.124;7.190;2023-07-31T20:12:30;16.50;99.90
53695;DHT22;39588;51.124;7.190;2023-07-31T20:14:59;16.50;99.90
53695;DHT22;39588;51.124;7.190;2023-07-31T20:19:56;16.50;99.90
53695;DHT22;39588;51.124;7.190;2023-07-31T20:22:22;16.60;99.90